createdAt,value
2018-07-28T00:00:32.081Z,11.43
2018-07-28T00:03:00.307Z,11.67
2018-07-28T00:05:28.643Z,13.03
2018-07-28T00:07:56.909Z,13.20
2018-07-28T00:10:24.889Z,11.63
2018-07-28T00:12:53.134Z,12.37
2018-07-28T00:15:21.133Z,12.00
2018-07-28T00:17:49.870Z,13.43
2018-07-28T00:20:17.841Z,13.83
2018-07-28T00:22:46.116Z,12.83
2018-07-28T00:25:14.417Z,11.60
2018-07-28T00:27:42.700Z,13.03
2018-07-28T00:30:12.518Z,12.53
2018-07-28T00:32:40.792Z,12.20
2018-07-28T00:35:09.267Z,11.47
2018-07-28T00:37:37.820Z,13.20
2018-07-28T00:40:06.306Z,12.60
2018-07-28T00:42:34.811Z,11.80
2018-07-28T00:45:03.135Z,12.30
2018-07-28T00:47:31.364Z,15.70
2018-07-28T00:49:59.606Z,12.80
2018-07-28T00:52:27.911Z,15.83
2018-07-28T00:54:56.309Z,12.93
2018-07-28T00:57:24.582Z,14.20
2018-07-28T00:59:52.802Z,14.00
2018-07-28T01:02:20.985Z,13.20
2018-07-28T01:04:49.205Z,11.90
2018-07-28T01:07:17.471Z,15.53
2018-07-28T01:09:45.805Z,13.13
2018-07-28T01:12:14.098Z,12.70
2018-07-28T01:14:42.350Z,14.40
2018-07-28T01:17:10.731Z,13.43
2018-07-28T01:19:38.954Z,14.57
2018-07-28T01:22:07.162Z,12.07
2018-07-28T01:24:35.465Z,13.83
2018-07-28T01:27:03.697Z,14.40
2018-07-28T01:29:31.951Z,12.77
2018-07-28T01:32:00.284Z,13.10
2018-07-28T01:34:28.574Z,13.40
2018-07-28T01:36:56.798Z,15.67
2018-07-28T01:39:25.010Z,13.97
2018-07-28T01:41:53.194Z,16.80
2018-07-28T01:44:21.430Z,13.10
2018-07-28T01:46:49.600Z,11.47
2018-07-28T01:49:17.812Z,14.50
2018-07-28T01:51:46.107Z,14.33
2018-07-28T01:54:14.375Z,15.80
2018-07-28T01:56:42.619Z,15.00
2018-07-28T01:59:11.050Z,15.10
2018-07-28T02:01:39.291Z,12.53
2018-07-28T02:04:07.542Z,13.00
2018-07-28T02:06:35.790Z,12.70
2018-07-28T02:09:06.284Z,17.47
2018-07-28T02:11:34.632Z,13.37
2018-07-28T02:14:02.940Z,13.63
2018-07-28T02:16:31.739Z,13.27
2018-07-28T02:18:59.968Z,13.83
2018-07-28T02:21:28.206Z,16.07
2018-07-28T02:23:56.627Z,15.20
2018-07-28T02:26:24.892Z,15.00
2018-07-28T02:28:53.210Z,14.60
2018-07-28T02:31:21.463Z,15.53
2018-07-28T02:33:49.674Z,16.33
2018-07-28T02:36:17.893Z,14.13
2018-07-28T02:38:46.230Z,15.83
2018-07-28T02:41:14.491Z,14.73
2018-07-28T02:43:42.738Z,15.00
2018-07-28T02:46:11.062Z,15.80
2018-07-28T02:48:39.326Z,14.17
2018-07-28T02:51:07.602Z,14.73
2018-07-28T02:56:15.114Z,14.53
2018-07-28T02:58:43.336Z,15.07
2018-07-28T03:01:12.070Z,16.93
2018-07-28T03:03:40.558Z,13.83
2018-07-28T03:06:08.910Z,13.83
2018-07-28T03:08:37.392Z,16.70
2018-07-28T03:11:05.649Z,15.87
2018-07-28T03:13:33.933Z,15.37
2018-07-28T03:16:02.179Z,16.50
2018-07-28T03:18:30.426Z,15.07
2018-07-28T03:20:58.609Z,16.07
2018-07-28T03:23:26.890Z,13.80
2018-07-28T03:25:55.131Z,14.63
2018-07-28T03:28:23.429Z,13.80
2018-07-28T03:30:51.669Z,15.20
2018-07-28T03:33:19.957Z,14.50
2018-07-28T03:35:48.211Z,17.63
2018-07-28T03:38:16.446Z,13.83
2018-07-28T03:40:44.724Z,15.03
2018-07-28T03:43:13.005Z,14.73
2018-07-28T03:45:41.246Z,13.97
2018-07-28T03:48:09.547Z,16.03
2018-07-28T03:50:37.825Z,13.07
2018-07-28T03:53:06.230Z,13.70
2018-07-28T03:55:34.674Z,14.70
2018-07-28T03:58:03.010Z,14.43
2018-07-28T04:00:31.234Z,14.70
2018-07-28T04:02:59.474Z,13.80
2018-07-28T04:05:27.731Z,14.33
2018-07-28T04:07:55.954Z,18.27
2018-07-28T04:10:24.210Z,15.20
2018-07-28T04:12:52.394Z,14.43
2018-07-28T04:15:27.221Z,14.03
2018-07-28T04:17:56.153Z,15.80
2018-07-28T04:20:25.682Z,15.70
2018-07-28T04:22:54.545Z,14.33
2018-07-28T04:25:22.915Z,13.47
2018-07-28T04:27:51.571Z,13.90
2018-07-28T04:30:19.822Z,15.00
2018-07-28T04:32:48.068Z,12.07
2018-07-28T04:35:16.035Z,13.40
2018-07-28T04:37:44.409Z,13.20
2018-07-28T04:40:13.271Z,14.00
2018-07-28T04:42:42.385Z,14.37
2018-07-28T04:45:10.692Z,13.73
2018-07-28T04:47:38.949Z,13.43
2018-07-28T04:50:07.271Z,13.80
2018-07-28T04:52:35.478Z,14.40
2018-07-28T04:55:03.937Z,14.03
2018-07-28T04:57:32.213Z,12.53
2018-07-28T05:00:00.561Z,13.43
2018-07-28T05:02:29.270Z,13.00
2018-07-28T05:04:57.861Z,13.97
2018-07-28T05:07:26.531Z,13.63
2018-07-28T05:09:55.509Z,13.97
2018-07-28T05:12:24.777Z,12.90
2018-07-28T05:14:53.053Z,12.87
2018-07-28T05:17:21.572Z,12.73
2018-07-28T05:19:49.822Z,11.87
2018-07-28T05:22:18.066Z,13.47
2018-07-28T05:24:46.341Z,11.70
2018-07-28T05:27:14.694Z,11.97
2018-07-28T05:29:43.816Z,14.13
2018-07-28T05:32:12.014Z,21.03
2018-07-28T05:34:40.354Z,14.43
2018-07-28T05:37:08.675Z,13.03
2018-07-28T05:39:36.911Z,13.50
2018-07-28T05:42:05.194Z,12.33
2018-07-28T05:44:33.448Z,11.70
2018-07-28T05:47:01.757Z,10.80
2018-07-28T05:49:30.054Z,12.53
2018-07-28T05:51:58.362Z,12.30
2018-07-28T05:54:26.586Z,10.33
2018-07-28T05:56:54.833Z,11.63
2018-07-28T05:59:23.113Z,11.10
2018-07-28T06:01:51.409Z,11.90
2018-07-28T06:04:19.831Z,11.50
2018-07-28T06:06:48.117Z,11.03
2018-07-28T06:09:16.352Z,10.40
2018-07-28T06:11:44.598Z,13.10
2018-07-28T06:14:12.919Z,9.07
2018-07-28T06:16:41.281Z,10.57
2018-07-28T06:19:09.537Z,10.00
2018-07-28T06:21:37.736Z,9.23
2018-07-28T06:24:06.973Z,10.77
2018-07-28T06:26:35.221Z,9.30
2018-07-28T06:29:03.498Z,10.93
2018-07-28T06:31:31.715Z,10.93
2018-07-28T06:33:59.989Z,14.23
2018-07-28T06:36:28.316Z,9.40
2018-07-28T06:38:56.622Z,9.00
2018-07-28T06:41:24.917Z,10.67
2018-07-28T06:43:53.179Z,9.43
2018-07-28T06:46:21.548Z,9.70
2018-07-28T06:48:49.879Z,10.30
2018-07-28T06:51:18.182Z,8.73
2018-07-28T06:53:46.595Z,9.17
2018-07-28T06:56:14.873Z,9.43
2018-07-28T06:58:43.114Z,8.57
2018-07-28T07:01:11.514Z,8.97
2018-07-28T07:03:39.795Z,8.63
2018-07-28T07:06:08.036Z,8.87
2018-07-28T07:08:36.358Z,13.73
2018-07-28T07:11:04.549Z,8.03
2018-07-28T07:13:32.862Z,9.60
2018-07-28T07:16:01.148Z,7.40
2018-07-28T07:18:29.369Z,8.30
2018-07-28T07:20:57.747Z,8.43
2018-07-28T07:23:26.254Z,9.17
2018-07-28T07:25:54.910Z,8.10
2018-07-28T07:28:23.209Z,8.50
2018-07-28T07:30:51.422Z,8.10
2018-07-28T07:33:19.840Z,9.40
2018-07-28T07:35:48.171Z,7.83
2018-07-28T07:38:16.394Z,8.23
2018-07-28T07:40:44.680Z,8.00
2018-07-28T07:43:12.922Z,7.97
2018-07-28T07:45:41.232Z,8.97
2018-07-28T07:48:09.497Z,9.57
2018-07-28T07:50:37.786Z,8.90
2018-07-28T07:53:06.243Z,9.20
2018-07-28T07:55:34.607Z,8.83
2018-07-28T07:58:02.893Z,8.13
2018-07-28T08:00:31.612Z,7.97
2018-07-28T08:02:59.982Z,7.20
2018-07-28T08:05:28.318Z,7.90
2018-07-28T08:07:56.522Z,8.07
2018-07-28T08:10:24.805Z,7.13
2018-07-28T08:12:53.168Z,7.27
2018-07-28T08:15:21.403Z,6.80
2018-07-28T08:17:49.692Z,6.80
2018-07-28T08:20:18.117Z,6.23
2018-07-28T08:22:46.328Z,8.10
2018-07-28T08:25:14.777Z,7.13
2018-07-28T08:27:43.035Z,7.07
2018-07-28T08:30:11.280Z,7.53
2018-07-28T08:32:39.836Z,8.27
2018-07-28T08:35:08.690Z,7.07
2018-07-28T08:37:37.017Z,7.17
2018-07-28T08:40:05.507Z,6.77
2018-07-28T08:42:33.715Z,8.30
2018-07-28T08:45:01.918Z,8.83
2018-07-28T08:47:29.905Z,8.63
2018-07-28T08:49:58.172Z,8.23
2018-07-28T08:52:26.440Z,7.43
2018-07-28T08:54:54.722Z,7.80
2018-07-28T08:57:23.074Z,7.30
2018-07-28T08:59:51.270Z,7.90
2018-07-28T09:02:19.550Z,8.20
2018-07-28T09:04:47.830Z,8.20
2018-07-28T09:07:16.086Z,7.50
2018-07-28T09:09:44.286Z,8.40
2018-07-28T09:12:12.572Z,7.60
2018-07-28T09:14:40.826Z,6.83
2018-07-28T09:17:09.023Z,7.23
2018-07-28T09:19:37.297Z,7.30
2018-07-28T09:22:05.516Z,8.77
2018-07-28T09:24:33.894Z,8.13
2018-07-28T09:27:02.216Z,9.90
2018-07-28T09:29:30.479Z,7.63
2018-07-28T09:31:58.666Z,7.67
2018-07-28T09:34:26.894Z,8.40
2018-07-28T09:36:55.762Z,9.70
2018-07-28T09:39:23.966Z,8.17
2018-07-28T09:41:52.286Z,7.70
2018-07-28T09:44:20.509Z,8.40
2018-07-28T09:46:49.205Z,10.27
2018-07-28T09:49:17.374Z,7.57
2018-07-28T09:51:45.593Z,6.83
2018-07-28T09:54:13.868Z,7.67
2018-07-28T09:56:42.099Z,7.03
2018-07-28T09:59:10.322Z,8.80
2018-07-28T10:01:38.579Z,7.50
2018-07-28T10:04:06.794Z,7.73
2018-07-28T10:06:35.050Z,8.80
2018-07-28T10:09:03.362Z,8.33
2018-07-28T10:11:32.353Z,9.20
2018-07-28T10:14:00.551Z,10.40
2018-07-28T10:16:28.766Z,8.10
2018-07-28T10:18:57.003Z,6.77
2018-07-28T10:21:25.044Z,8.60
2018-07-28T10:23:53.427Z,8.90
2018-07-28T10:26:21.628Z,8.97
2018-07-28T10:28:49.886Z,8.13
2018-07-28T10:31:18.300Z,9.03
2018-07-28T10:33:46.493Z,8.30
2018-07-28T10:36:14.809Z,8.70
2018-07-28T10:38:43.216Z,8.53
2018-07-28T10:41:11.423Z,8.93
2018-07-28T10:43:39.638Z,8.57
2018-07-28T10:46:07.881Z,7.73
2018-07-28T10:48:36.186Z,8.77
2018-07-28T10:51:04.641Z,7.80
2018-07-28T10:53:32.848Z,8.50
2018-07-28T10:56:01.195Z,11.10
2018-07-28T10:58:29.482Z,8.43
2018-07-28T11:00:57.738Z,10.37
2018-07-28T11:03:25.959Z,8.70
2018-07-28T11:05:54.198Z,10.10
2018-07-28T11:08:22.521Z,9.70
2018-07-28T11:10:50.748Z,9.63
2018-07-28T11:13:19.123Z,9.40
2018-07-28T11:15:47.371Z,8.47
2018-07-28T11:18:15.621Z,9.30
2018-07-28T11:20:43.889Z,9.37
2018-07-28T11:23:18.565Z,11.07
2018-07-28T11:25:46.895Z,9.10
2018-07-28T11:28:15.236Z,8.60
2018-07-28T11:30:43.571Z,9.60
2018-07-28T11:33:23.235Z,9.33
2018-07-28T11:36:02.982Z,12.00
2018-07-28T11:38:42.579Z,16.30
2018-07-28T11:41:22.246Z,13.17
2018-07-28T11:44:01.778Z,12.70
2018-07-28T11:46:30.059Z,11.27
2018-07-28T11:48:58.278Z,10.40
2018-07-28T11:51:27.267Z,7.97
2018-07-28T11:53:55.476Z,9.30
2018-07-28T11:56:23.758Z,10.53
2018-07-28T11:58:52.444Z,20.30
2018-07-28T12:01:20.911Z,13.03
2018-07-28T12:03:49.202Z,9.10
2018-07-28T12:06:17.438Z,8.67
2018-07-28T12:08:45.658Z,10.13
2018-07-28T12:11:13.900Z,6.93
2018-07-28T12:13:42.175Z,9.93
2018-07-28T12:16:10.427Z,6.90
2018-07-28T12:18:38.896Z,10.30
2018-07-28T12:21:07.153Z,9.00
2018-07-28T12:23:35.307Z,8.47
2018-07-28T12:26:03.546Z,11.47
2018-07-28T12:28:32.270Z,8.87
2018-07-28T12:31:00.531Z,9.17
2018-07-28T12:33:28.857Z,8.67
2018-07-28T12:35:57.097Z,8.50
2018-07-28T12:38:25.328Z,8.47
2018-07-28T12:40:53.615Z,7.57
2018-07-28T12:43:22.092Z,6.40
2018-07-28T12:45:50.317Z,6.87
2018-07-28T12:48:18.536Z,6.77
2018-07-28T12:50:46.819Z,7.53
2018-07-28T12:53:15.065Z,7.50
2018-07-28T12:55:43.328Z,6.60
2018-07-28T12:58:11.542Z,6.90
2018-07-28T13:00:39.776Z,8.17
2018-07-28T13:03:08.361Z,7.13
2018-07-28T13:05:36.629Z,7.00
2018-07-28T13:08:05.197Z,9.90
2018-07-28T13:10:33.427Z,6.70
2018-07-28T13:13:01.661Z,6.67
2018-07-28T13:15:30.041Z,9.13
2018-07-28T13:17:58.461Z,5.80
2018-07-28T13:20:26.651Z,5.83
2018-07-28T13:22:54.942Z,6.40
2018-07-28T13:25:23.199Z,4.87
2018-07-28T13:27:51.454Z,5.63
2018-07-28T13:30:19.702Z,5.53
2018-07-28T13:32:48.066Z,5.03
2018-07-28T13:35:16.415Z,6.50
2018-07-28T13:37:44.649Z,5.53
2018-07-28T13:40:12.917Z,4.27
2018-07-28T13:42:41.371Z,5.20
2018-07-28T13:45:09.650Z,4.17
2018-07-28T13:47:37.956Z,6.17
2018-07-28T13:50:06.286Z,5.83
2018-07-28T13:52:35.093Z,8.40
2018-07-28T13:55:03.423Z,5.90
2018-07-28T13:57:31.763Z,5.90
2018-07-28T14:00:00.159Z,5.40
2018-07-28T14:02:28.590Z,5.47
2018-07-28T14:04:56.818Z,6.00
2018-07-28T14:07:25.106Z,5.27
2018-07-28T14:09:53.375Z,5.93
2018-07-28T14:12:21.743Z,6.07
2018-07-28T14:14:49.959Z,6.23
2018-07-28T14:17:18.473Z,5.80
2018-07-28T14:19:46.693Z,6.57
2018-07-28T14:22:14.917Z,6.30
2018-07-28T14:24:43.114Z,8.57
2018-07-28T14:27:11.125Z,5.70
2018-07-28T14:29:39.381Z,6.87
2018-07-28T14:32:08.529Z,7.03
2018-07-28T14:34:36.749Z,6.87
2018-07-28T14:37:05.238Z,6.80
2018-07-28T14:39:33.480Z,6.60
2018-07-28T14:42:01.747Z,6.77
2018-07-28T14:44:29.953Z,6.67
2018-07-28T14:46:58.241Z,6.40
2018-07-28T14:49:26.513Z,6.77
2018-07-28T14:51:54.790Z,6.33
2018-07-28T14:54:23.141Z,6.30
2018-07-28T14:56:51.432Z,7.20
2018-07-28T14:59:19.622Z,6.80
2018-07-28T15:01:47.998Z,6.07
2018-07-28T15:04:16.277Z,7.20
2018-07-28T15:06:44.549Z,6.50
2018-07-28T15:09:12.842Z,6.37
2018-07-28T15:11:41.180Z,6.63
2018-07-28T15:14:09.103Z,6.47
2018-07-28T15:16:37.741Z,7.13
2018-07-28T15:19:06.442Z,7.50
2018-07-28T15:21:34.763Z,7.57
2018-07-28T15:24:03.283Z,8.17
2018-07-28T15:26:31.609Z,7.40
2018-07-28T15:28:59.848Z,8.37
2018-07-28T15:31:28.238Z,7.20
2018-07-28T15:33:56.569Z,6.90
2018-07-28T15:36:24.859Z,7.50
2018-07-28T15:38:53.588Z,7.77
2018-07-28T15:41:21.829Z,7.13
2018-07-28T15:43:50.138Z,7.80
2018-07-28T15:46:18.414Z,7.97
2018-07-28T15:48:46.773Z,7.80
2018-07-28T15:51:15.986Z,7.37
2018-07-28T15:53:44.254Z,7.13
2018-07-28T15:56:12.574Z,7.20
2018-07-28T15:58:40.901Z,7.03
2018-07-28T16:01:09.444Z,6.70
2018-07-28T16:03:37.746Z,6.10
2018-07-28T16:06:06.002Z,6.27
2018-07-28T16:08:34.368Z,7.40
2018-07-28T16:11:02.647Z,6.77
2018-07-28T16:13:30.867Z,7.27
2018-07-28T16:15:59.187Z,6.53
2018-07-28T16:18:27.429Z,6.70
2018-07-28T16:20:55.633Z,6.00
2018-07-28T16:23:24.574Z,7.70
2018-07-28T16:25:52.855Z,5.73
2018-07-28T16:28:21.135Z,14.23
2018-07-28T16:30:49.395Z,6.83
2018-07-28T16:33:17.630Z,6.90
2018-07-28T16:35:45.847Z,6.20
2018-07-28T16:38:14.147Z,5.70
2018-07-28T16:40:42.410Z,13.40
2018-07-28T16:43:10.690Z,14.70
2018-07-28T16:45:38.891Z,6.93
2018-07-28T16:48:07.229Z,7.00
2018-07-28T16:50:35.514Z,6.27
2018-07-28T16:53:04.042Z,7.80
2018-07-28T16:55:32.386Z,7.40
2018-07-28T16:58:00.646Z,5.90
2018-07-28T17:00:28.869Z,8.33
2018-07-28T17:02:57.200Z,7.00
2018-07-28T17:05:28.581Z,6.67
2018-07-28T17:07:57.262Z,6.73
2018-07-28T17:10:25.513Z,8.03
2018-07-28T17:12:53.895Z,7.73
2018-07-28T17:15:22.149Z,7.63
2018-07-28T17:17:50.413Z,6.80
2018-07-28T17:20:18.706Z,7.80
2018-07-28T17:22:47.053Z,8.70
2018-07-28T17:25:15.326Z,7.43
2018-07-28T17:27:43.553Z,6.53
2018-07-28T17:30:12.106Z,6.47
2018-07-28T17:32:40.413Z,7.23
2018-07-28T17:35:08.734Z,7.20
2018-07-28T17:37:36.986Z,7.60
2018-07-28T17:40:05.346Z,8.20
2018-07-28T17:42:33.665Z,6.60
2018-07-28T17:45:02.974Z,9.90
2018-07-28T17:47:31.524Z,8.00
2018-07-28T17:49:59.866Z,8.60
2018-07-28T17:52:28.413Z,7.30
2018-07-28T17:54:56.707Z,9.50
2018-07-28T17:57:25.032Z,8.43
2018-07-28T17:59:53.532Z,8.10
2018-07-28T18:02:21.952Z,7.17
2018-07-28T18:04:50.219Z,9.13
2018-07-28T18:07:18.526Z,7.23
2018-07-28T18:09:46.821Z,8.00
2018-07-28T18:12:15.073Z,12.53
2018-07-28T18:14:43.354Z,7.40
2018-07-28T18:17:11.598Z,7.40
2018-07-28T18:19:40.097Z,7.80
2018-07-28T18:22:08.489Z,7.20
2018-07-28T18:24:36.719Z,9.03
2018-07-28T18:27:05.108Z,8.27
2018-07-28T18:29:33.329Z,6.80
2018-07-28T18:32:02.087Z,9.07
2018-07-28T18:34:30.396Z,7.67
2018-07-28T18:36:58.721Z,7.53
2018-07-28T18:39:26.911Z,7.50
2018-07-28T18:41:55.297Z,7.77
2018-07-28T18:44:23.558Z,8.00
2018-07-28T18:46:51.793Z,7.67
2018-07-28T18:49:20.169Z,29.80
2018-07-28T18:51:48.398Z,9.67
2018-07-28T18:54:16.706Z,8.20
2018-07-28T18:56:45.059Z,7.43
2018-07-28T18:59:13.653Z,8.63
2018-07-28T19:01:41.942Z,8.67
2018-07-28T19:04:10.207Z,8.03
2018-07-28T19:06:39.466Z,9.30
2018-07-28T19:09:13.425Z,8.23
2018-07-28T19:11:42.533Z,10.27
2018-07-28T19:14:16.215Z,8.70
2018-07-28T19:16:44.849Z,7.93
2018-07-28T19:19:15.730Z,8.30
2018-07-28T19:21:45.398Z,9.40
2018-07-28T19:24:13.746Z,10.10
2018-07-28T19:26:42.070Z,8.83
2018-07-28T19:29:15.522Z,9.40
2018-07-28T19:31:43.894Z,8.67
2018-07-28T19:34:13.123Z,8.10
2018-07-28T19:37:19.820Z,8.33
2018-07-28T19:39:48.390Z,8.77
2018-07-28T19:42:22.756Z,9.23
2018-07-28T19:44:51.300Z,7.97
2018-07-28T19:47:19.541Z,8.90
2018-07-28T19:49:47.852Z,9.80
2018-07-28T19:52:16.258Z,8.60
2018-07-28T19:54:44.456Z,8.17
2018-07-28T19:57:12.876Z,9.67
2018-07-28T19:59:41.182Z,8.60
2018-07-28T20:02:09.696Z,9.40
2018-07-28T20:04:38.025Z,9.70
2018-07-28T20:07:06.670Z,8.80
2018-07-28T20:09:35.133Z,9.87
2018-07-28T20:12:03.390Z,9.83
2018-07-28T20:14:31.683Z,8.37
2018-07-28T20:17:00.033Z,8.50
2018-07-28T20:19:28.518Z,9.17
2018-07-28T20:21:57.020Z,9.97
2018-07-28T20:24:25.309Z,9.63
2018-07-28T20:26:53.551Z,9.47
2018-07-28T20:29:21.802Z,9.70
2018-07-28T20:31:50.166Z,9.63
2018-07-28T20:34:18.410Z,10.63
2018-07-28T20:36:46.780Z,10.03
2018-07-28T20:39:15.153Z,9.20
2018-07-28T20:41:43.437Z,9.87
2018-07-28T20:44:11.770Z,9.90
2018-07-28T20:46:40.040Z,9.90
2018-07-28T20:49:08.428Z,10.30
2018-07-28T20:51:36.907Z,9.97
2018-07-28T20:54:05.307Z,11.13
2018-07-28T20:56:33.522Z,9.47
2018-07-28T20:59:01.864Z,10.17
2018-07-28T21:01:30.070Z,11.60
2018-07-28T21:03:58.369Z,10.00
2018-07-28T21:06:26.743Z,10.50
2018-07-28T21:08:56.322Z,10.30
2018-07-28T21:11:24.591Z,11.07
2018-07-28T21:13:52.970Z,11.03
2018-07-28T21:16:21.594Z,9.80
2018-07-28T21:18:49.858Z,9.50
2018-07-28T21:21:18.325Z,10.70
2018-07-28T21:23:46.630Z,10.33
2018-07-28T21:26:16.515Z,11.23
2018-07-28T21:28:45.804Z,9.63
2018-07-28T21:31:14.033Z,11.13
2018-07-28T21:33:42.380Z,10.40
2018-07-28T21:36:10.663Z,9.60
2018-07-28T21:38:39.014Z,10.47
2018-07-28T21:41:07.541Z,9.90
2018-07-28T21:43:35.972Z,9.37
2018-07-28T21:46:04.249Z,10.07
2018-07-28T21:48:32.505Z,10.53
2018-07-28T21:51:01.022Z,9.90
2018-07-28T21:53:29.324Z,10.47
2018-07-28T21:55:57.664Z,10.03
2018-07-28T21:58:26.094Z,10.80
2018-07-28T22:01:02.984Z,10.00
2018-07-28T22:03:31.327Z,9.87
2018-07-28T22:05:59.556Z,9.40
2018-07-28T22:08:27.849Z,10.37
2018-07-28T22:11:02.661Z,9.30
2018-07-28T22:13:30.957Z,10.23
2018-07-28T22:15:59.239Z,10.80
2018-07-28T22:18:27.605Z,10.47
2018-07-28T22:20:55.585Z,9.00
2018-07-28T22:23:25.777Z,10.03
2018-07-28T22:25:54.042Z,8.27
2018-07-28T22:28:22.376Z,9.17
2018-07-28T22:30:50.638Z,9.27
2018-07-28T22:33:18.904Z,9.00
2018-07-28T22:35:47.189Z,8.60
2018-07-28T22:38:15.522Z,9.73
2018-07-28T22:40:43.822Z,8.93
2018-07-28T22:43:12.083Z,9.50
2018-07-28T22:45:46.814Z,8.90
2018-07-28T22:48:15.111Z,9.10
2018-07-28T22:50:43.385Z,9.63
2018-07-28T22:53:11.648Z,8.90
2018-07-28T22:55:39.911Z,9.77
2018-07-28T22:58:08.155Z,8.13
2018-07-28T23:00:36.859Z,8.77
2018-07-28T23:03:05.146Z,8.73
2018-07-28T23:05:33.534Z,8.60
2018-07-28T23:08:02.002Z,8.80
2018-07-28T23:10:30.316Z,9.30
2018-07-28T23:12:58.647Z,9.70
2018-07-28T23:15:27.007Z,9.13
2018-07-28T23:17:55.251Z,8.47
2018-07-28T23:20:23.605Z,8.23
2018-07-28T23:22:51.961Z,8.00
2018-07-28T23:25:20.312Z,9.00
2018-07-28T23:27:48.636Z,8.10
2018-07-28T23:30:16.821Z,8.10
2018-07-28T23:32:44.806Z,9.27
2018-07-28T23:35:13.129Z,8.63
2018-07-28T23:37:41.504Z,8.80
2018-07-28T23:40:09.785Z,9.40
2018-07-28T23:42:38.056Z,8.90
2018-07-28T23:45:06.603Z,8.63
2018-07-28T23:47:34.961Z,8.87
2018-07-28T23:50:03.206Z,8.43
2018-07-28T23:52:31.600Z,9.27
2018-07-28T23:54:59.890Z,10.17
2018-07-28T23:57:28.163Z,9.30
2018-07-28T23:59:56.454Z,9.00
